Time;durP1;ratioP1;P1;durP2;ratioP2;P2;SDS_P1;SDS_P2;PMS_P1;PMS_P2;Temp;Humidity;BMP_temperature;BMP_pressure;BME280_temperature;BME280_humidity;BME280_pressure;Samples;Min_cycle;Max_cycle;Signal;HPM_P1;HPM_P2
2023/06/15 00:01:09;;;;;;;8.65;7.55;;;19.30;88.40;;;;;;5013983;28;20108;-59
2023/06/15 00:03:55;;;;;;;8.98;7.53;;;19.20;87.70;;;;;;5023230;28;20038;-57
2023/06/15 00:06:41;;;;;;;8.50;6.57;;;19.10;87.90;;;;;;5034246;28;20029;-56
2023/06/15 00:09:26;;;;;;;9.02;6.97;;;19.00;88.80;;;;;;5032993;28;20025;-59
2023/06/15 00:12:12;;;;;;;8.77;6.88;;;19.00;88.60;;;;;;5032789;28;20021;-57
2023/06/15 00:14:58;;;;;;;7.90;6.88;;;19.00;88.50;;;;;;5033130;28;20062;-58
2023/06/15 00:17:44;;;;;;;9.50;6.40;;;18.80;89.10;;;;;;5032159;28;20061;-56
2023/06/15 00:20:30;;;;;;;10.55;7.07;;;18.70;89.80;;;;;;5034124;28;20029;-57
2023/06/15 00:23:17;;;;;;;9.30;7.15;;;18.70;89.30;;;;;;5034687;28;20025;-53
2023/06/15 00:26:03;;;;;;;8.57;6.80;;;18.60;90.30;;;;;;5034116;28;20060;-59
2023/06/15 00:28:49;;;;;;;10.48;6.93;;;18.50;90.10;;;;;;5033184;28;20583;-57
2023/06/15 00:31:35;;;;;;;13.98;7.38;;;18.50;90.10;;;;;;5023631;28;20045;-56
2023/06/15 00:34:21;;;;;;;7.82;6.80;;;18.50;89.80;;;;;;5013719;28;20030;-53
2023/06/15 00:37:07;;;;;;;8.85;7.35;;;18.50;88.90;;;;;;5013029;28;20030;-52
2023/06/15 00:39:54;;;;;;;8.50;6.80;;;18.50;88.20;;;;;;5013308;28;20068;-57
2023/06/15 00:42:40;;;;;;;9.48;6.63;;;18.40;88.60;;;;;;5013421;28;20040;-57
2023/06/15 00:45:26;;;;;;;7.85;6.40;;;18.40;89.00;;;;;;5013079;28;20321;-57
2023/06/15 00:48:13;;;;;;;11.10;6.57;;;18.40;88.90;;;;;;5013294;28;20168;-57
2023/06/15 00:50:59;;;;;;;9.65;6.50;;;18.30;89.40;;;;;;5013124;28;20479;-57
2023/06/15 00:53:45;;;;;;;10.82;7.65;;;18.30;89.40;;;;;;5012921;28;20673;-57
2023/06/15 00:56:32;;;;;;;9.25;6.63;;;18.30;90.10;;;;;;5013819;28;20034;-57
2023/06/15 00:59:19;;;;;;;8.77;6.80;;;18.30;90.10;;;;;;5014224;28;20368;-58
2023/06/15 01:02:05;;;;;;;9.52;6.80;;;18.20;90.00;;;;;;5012005;28;20026;-54
2023/06/15 01:04:51;;;;;;;9.05;6.63;;;18.30;90.30;;;;;;5012907;28;20030;-57
2023/06/15 01:07:47;;;;;;;7.00;6.30;;;18.30;90.70;;;;;;5012058;28;20030;-58
2023/06/15 01:10:35;;;;;;;8.38;6.47;;;18.30;90.90;;;;;;5013162;28;20113;-58
2023/06/15 01:13:22;;;;;;;7.97;6.57;;;18.40;91.10;;;;;;5016066;28;20037;-59
2023/06/15 01:16:14;;;;;;;9.00;7.00;;;18.40;90.70;;;;;;5042140;28;20085;-55
2023/06/15 01:19:01;;;;;;;8.10;6.78;;;18.40;90.60;;;;;;5035735;28;20076;-61
2023/06/15 01:21:48;;;;;;;7.60;6.80;;;18.40;89.90;;;;;;5023205;28;20034;-60
2023/06/15 01:24:38;;;;;;;7.07;6.38;;;18.30;90.20;;;;;;5021961;28;20030;-63
2023/06/15 01:27:24;;;;;;;8.55;6.28;;;18.20;90.30;;;;;;5022717;28;20030;-60
2023/06/15 01:30:12;;;;;;;8.82;6.60;;;18.20;90.70;;;;;;5035961;28;20023;-59
2023/06/15 01:32:59;;;;;;;8.07;6.82;;;18.30;90.70;;;;;;5029172;28;20033;-60
2023/06/15 01:35:45;;;;;;;9.95;7.07;;;18.30;90.70;;;;;;5036097;28;20536;-58
2023/06/15 01:38:31;;;;;;;9.10;6.38;;;18.30;90.70;;;;;;5040131;28;20514;-58
2023/06/15 01:41:19;;;;;;;9.65;6.90;;;18.30;91.00;;;;;;5041333;28;20033;-58
2023/06/15 01:44:06;;;;;;;8.63;6.65;;;18.30;91.10;;;;;;5041980;28;20045;-60
2023/06/15 01:46:52;;;;;;;12.68;8.23;;;18.20;91.50;;;;;;5040726;28;20029;-59
2023/06/15 01:49:40;;;;;;;8.40;7.13;;;18.00;91.70;;;;;;5041730;28;20056;-58
2023/06/15 01:52:26;;;;;;;8.80;6.80;;;18.00;92.00;;;;;;5042248;28;20080;-57
2023/06/15 01:55:12;;;;;;;6.90;6.10;;;18.00;91.70;;;;;;5042877;28;20042;-58
2023/06/15 01:57:58;;;;;;;7.82;6.85;;;18.00;91.50;;;;;;5041965;28;20402;-60
2023/06/15 02:00:46;;;;;;;7.13;6.18;;;18.10;91.60;;;;;;5042113;28;20033;-58
2023/06/15 02:03:32;;;;;;;7.57;6.80;;;18.10;91.70;;;;;;5041801;28;20064;-59
2023/06/15 02:06:18;;;;;;;8.65;6.55;;;18.20;91.90;;;;;;5038209;28;20052;-58
2023/06/15 02:09:04;;;;;;;8.02;6.53;;;18.20;91.80;;;;;;5035353;28;20529;-59
2023/06/15 02:11:50;;;;;;;9.43;6.75;;;18.10;92.20;;;;;;5026132;28;20029;-59
2023/06/15 02:14:36;;;;;;;8.15;6.68;;;18.00;92.30;;;;;;5021577;28;20022;-59
2023/06/15 02:17:24;;;;;;;8.20;7.20;;;17.80;92.80;;;;;;5019304;28;20450;-58
2023/06/15 02:20:11;;;;;;;8.20;6.72;;;17.60;94.00;;;;;;5023075;28;20034;-59
2023/06/15 02:22:57;;;;;;;7.70;6.85;;;17.60;94.30;;;;;;5035528;28;20124;-60
2023/06/15 02:25:43;;;;;;;8.20;6.82;;;17.60;94.40;;;;;;5042901;28;20030;-59
2023/06/15 02:28:29;;;;;;;8.40;6.95;;;17.70;94.60;;;;;;5042885;28;20398;-60
2023/06/15 02:31:15;;;;;;;8.30;7.38;;;17.60;94.90;;;;;;5039996;28;20076;-60
2023/06/15 02:34:01;;;;;;;7.88;6.97;;;17.70;94.60;;;;;;5041743;28;20405;-60
2023/06/15 02:36:48;;;;;;;9.32;7.18;;;17.60;94.40;;;;;;5042440;28;20026;-59
2023/06/15 02:39:34;;;;;;;10.23;7.40;;;17.60;94.00;;;;;;5042272;28;20060;-60
2023/06/15 02:42:20;;;;;;;9.88;6.70;;;17.60;93.60;;;;;;5042929;28;20030;-60
2023/06/15 02:45:07;;;;;;;10.75;7.75;;;17.60;93.50;;;;;;5027823;28;20041;-61
2023/06/15 02:47:53;;;;;;;11.95;7.55;;;17.50;93.40;;;;;;5022983;28;20498;-60
2023/06/15 02:50:39;;;;;;;10.55;7.35;;;17.50;93.50;;;;;;5037768;28;20402;-60
2023/06/15 02:53:25;;;;;;;9.40;7.25;;;17.40;93.90;;;;;;5030391;28;20512;-59
2023/06/15 02:56:11;;;;;;;9.40;7.88;;;17.40;94.10;;;;;;5044794;28;20026;-59
2023/06/15 02:58:57;;;;;;;10.77;8.25;;;17.30;94.10;;;;;;5025149;28;20030;-55
2023/06/15 03:01:43;;;;;;;8.13;7.32;;;17.10;94.10;;;;;;5024455;28;20523;-58
2023/06/15 03:04:30;;;;;;;11.38;7.60;;;17.00;94.00;;;;;;5024355;28;20037;-59
2023/06/15 03:07:20;;;;;;;12.15;7.88;;;16.80;94.20;;;;;;5024786;28;20060;-59
2023/06/15 03:10:06;;;;;;;10.48;7.90;;;16.70;94.30;;;;;;5025538;28;20037;-59
2023/06/15 03:12:52;;;;;;;9.90;7.50;;;16.50;95.30;;;;;;5025720;28;20113;-58
2023/06/15 03:15:38;;;;;;;10.23;7.88;;;16.40;95.30;;;;;;5023672;28;20402;-59
2023/06/15 03:18:24;;;;;;;7.78;6.97;;;16.40;95.40;;;;;;5041989;28;20060;-57
2023/06/15 03:21:12;;;;;;;9.02;7.78;;;16.40;95.00;;;;;;5044241;28;20068;-58
2023/06/15 03:23:58;;;;;;;10.07;7.60;;;16.40;95.00;;;;;;5042530;28;20044;-61
2023/06/15 03:26:44;;;;;;;8.45;7.45;;;16.50;95.00;;;;;;5029818;28;20018;-58
2023/06/15 03:29:31;;;;;;;12.75;7.70;;;16.60;94.20;;;;;;5041248;28;20020;-57
2023/06/15 03:32:17;;;;;;;10.55;7.38;;;16.60;94.60;;;;;;5041683;28;20029;-56
2023/06/15 03:35:04;;;;;;;9.52;7.55;;;16.60;94.00;;;;;;5044484;28;20026;-58
2023/06/15 03:37:50;;;;;;;11.02;7.80;;;16.50;94.40;;;;;;5041050;28;20085;-58
2023/06/15 03:40:37;;;;;;;10.70;7.50;;;16.60;93.80;;;;;;5039992;28;20025;-59
2023/06/15 03:43:23;;;;;;;9.25;7.93;;;16.60;93.40;;;;;;5041928;28;20410;-59
2023/06/15 03:46:09;;;;;;;11.27;7.47;;;16.60;93.10;;;;;;5024915;28;20070;-59
2023/06/15 03:48:55;;;;;;;11.23;7.80;;;16.70;92.80;;;;;;5024118;28;20030;-60
2023/06/15 03:51:42;;;;;;;13.57;7.93;;;16.70;92.60;;;;;;5027641;28;20132;-61
2023/06/15 03:54:28;;;;;;;10.25;8.52;;;16.60;92.60;;;;;;5037637;28;20021;-61
2023/06/15 03:57:14;;;;;;;10.00;8.00;;;16.50;93.00;;;;;;5039207;28;20029;-60
2023/06/15 04:00:00;;;;;;;15.95;8.20;;;16.50;92.90;;;;;;5033996;28;20030;-54
2023/06/15 04:02:46;;;;;;;8.98;8.00;;;16.50;93.30;;;;;;5033370;28;20479;-54
2023/06/15 04:05:32;;;;;;;11.07;8.00;;;16.50;92.90;;;;;;5032927;28;20052;-51
2023/06/15 04:08:18;;;;;;;9.55;7.88;;;16.40;93.00;;;;;;5033161;28;20053;-53
2023/06/15 04:11:04;;;;;;;11.15;8.48;;;16.50;92.80;;;;;;5033413;28;20025;-55
2023/06/15 04:13:50;;;;;;;10.32;7.80;;;16.60;92.60;;;;;;5013290;28;20042;-55
2023/06/15 04:16:36;;;;;;;12.18;7.35;;;16.70;92.60;;;;;;5013217;28;20108;-53
2023/06/15 04:19:22;;;;;;;10.38;7.70;;;16.70;92.70;;;;;;5013371;28;20038;-55
2023/06/15 04:22:09;;;;;;;13.65;7.43;;;16.80;91.60;;;;;;5013010;28;20112;-56
2023/06/15 04:24:55;;;;;;;12.63;7.75;;;16.80;91.90;;;;;;5014064;28;20530;-49
2023/06/15 04:27:41;;;;;;;12.15;7.45;;;16.70;91.60;;;;;;5012606;28;20556;-52
2023/06/15 04:30:27;;;;;;;10.35;7.15;;;16.70;92.10;;;;;;5012555;28;20022;-51
2023/06/15 04:33:13;;;;;;;12.07;7.45;;;16.60;92.20;;;;;;5028163;28;20115;-50
2023/06/15 04:36:01;;;;;;;10.43;7.78;;;16.60;91.90;;;;;;5031795;28;20113;-57
2023/06/15 04:38:48;;;;;;;9.88;7.82;;;16.60;91.60;;;;;;5033939;28;20048;-58
2023/06/15 04:41:35;;;;;;;8.00;6.88;;;16.80;91.40;;;;;;5011319;28;20116;-58
2023/06/15 04:44:20;;;;;;;12.40;8.20;;;16.60;91.30;;;;;;5013419;28;20113;-58
2023/06/15 04:47:07;;;;;;;12.15;8.23;;;16.70;91.40;;;;;;5012808;28;20136;-59
2023/06/15 04:49:53;;;;;;;13.63;8.02;;;16.70;91.00;;;;;;5013518;28;20305;-57
2023/06/15 04:52:40;;;;;;;14.15;7.97;;;16.60;91.10;;;;;;5012285;28;20034;-58
2023/06/15 04:55:26;;;;;;;13.00;7.18;;;16.50;91.70;;;;;;5013459;28;20048;-56
2023/06/15 04:58:13;;;;;;;12.27;8.13;;;16.60;91.80;;;;;;5011959;28;20030;-55
2023/06/15 05:00:59;;;;;;;12.10;7.47;;;16.60;91.30;;;;;;5019099;28;20617;-57
2023/06/15 05:03:45;;;;;;;8.63;7.53;;;16.60;91.30;;;;;;5031123;28;20521;-58
2023/06/15 05:06:31;;;;;;;13.45;7.53;;;16.60;91.30;;;;;;5033502;28;20565;-60
2023/06/15 05:09:19;;;;;;;10.95;7.60;;;16.60;91.70;;;;;;5018411;28;20033;-59
2023/06/15 05:12:05;;;;;;;11.73;7.10;;;16.60;91.60;;;;;;5017318;28;20513;-60
2023/06/15 05:14:51;;;;;;;12.93;8.07;;;16.70;91.70;;;;;;5015992;28;20069;-60
2023/06/15 05:17:37;;;;;;;11.50;7.20;;;16.60;91.50;;;;;;5016658;28;20084;-61
2023/06/15 05:20:23;;;;;;;12.55;10.18;;;16.50;91.50;;;;;;5016512;28;20488;-61
2023/06/15 05:23:09;;;;;;;11.40;6.88;;;16.40;91.80;;;;;;5017588;28;20572;-61
2023/06/15 05:25:55;;;;;;;10.98;7.80;;;16.50;91.50;;;;;;5017111;28;20033;-52
2023/06/15 05:28:41;;;;;;;11.27;7.30;;;16.60;91.40;;;;;;5015902;28;20025;-53
2023/06/15 05:31:27;;;;;;;13.70;7.57;;;16.60;91.20;;;;;;5014498;28;20022;-60
2023/06/15 05:34:13;;;;;;;10.70;7.10;;;16.50;91.70;;;;;;5014450;28;20418;-58
2023/06/15 05:36:59;;;;;;;15.35;7.80;;;16.70;91.50;;;;;;5031681;28;20092;-52
2023/06/15 05:39:46;;;;;;;12.45;7.00;;;16.90;91.00;;;;;;5033093;28;20029;-53
2023/06/15 05:42:32;;;;;;;16.75;8.65;;;17.10;90.50;;;;;;5031054;28;20418;-52
2023/06/15 05:45:18;;;;;;;9.32;7.22;;;17.10;90.80;;;;;;5032971;28;20045;-52
2023/06/15 05:48:04;;;;;;;10.52;7.00;;;17.30;90.40;;;;;;5031231;28;20048;-55
2023/06/15 05:50:50;;;;;;;14.00;8.00;;;17.30;90.20;;;;;;5031864;28;20534;-53
2023/06/15 05:53:36;;;;;;;11.57;7.13;;;17.30;90.30;;;;;;5034201;28;20498;-53
2023/06/15 05:56:22;;;;;;;9.75;6.85;;;17.40;90.40;;;;;;5035991;28;20040;-52
2023/06/15 05:59:08;;;;;;;10.13;7.63;;;17.30;90.60;;;;;;5035754;28;20105;-52
2023/06/15 06:01:54;;;;;;;11.07;7.03;;;17.30;90.30;;;;;;5026536;28;20038;-52
2023/06/15 06:04:40;;;;;;;10.07;7.30;;;17.30;90.40;;;;;;5015842;28;20022;-52
2023/06/15 06:07:26;;;;;;;9.27;7.03;;;17.40;90.40;;;;;;5016256;28;20037;-52
2023/06/15 06:10:13;;;;;;;10.00;7.07;;;17.60;90.30;;;;;;5031769;28;20076;-58
2023/06/15 06:12:58;;;;;;;10.43;7.38;;;17.70;90.00;;;;;;5034804;28;20109;-58
2023/06/15 06:15:44;;;;;;;12.15;7.55;;;17.70;90.20;;;;;;5035345;28;20036;-53
2023/06/15 06:18:30;;;;;;;13.55;8.25;;;17.70;90.00;;;;;;5035596;28;20112;-56
2023/06/15 06:21:16;;;;;;;10.82;7.63;;;17.70;90.10;;;;;;5038058;28;20025;-60
2023/06/15 06:24:03;;;;;;;15.20;7.90;;;17.90;90.00;;;;;;5036513;28;20124;-56
2023/06/15 06:26:49;;;;;;;9.82;7.38;;;18.00;89.60;;;;;;5037391;28;20028;-57
2023/06/15 06:29:35;;;;;;;10.80;7.28;;;18.20;89.20;;;;;;5036799;28;20033;-53
2023/06/15 06:32:21;;;;;;;10.02;6.85;;;17.80;89.50;;;;;;5035421;28;20501;-51
2023/06/15 06:35:07;;;;;;;10.65;7.22;;;17.90;89.80;;;;;;5035352;28;20159;-51
2023/06/15 06:37:53;;;;;;;10.52;7.30;;;18.10;89.20;;;;;;5034336;28;20498;-53
2023/06/15 06:40:39;;;;;;;10.90;7.07;;;18.10;88.30;;;;;;5034356;28;20049;-55
2023/06/15 06:43:25;;;;;;;13.00;7.45;;;18.20;88.00;;;;;;5034967;28;20052;-52
2023/06/15 06:46:13;;;;;;;11.80;7.63;;;18.30;88.50;;;;;;5032470;28;20509;-51
2023/06/15 06:48:59;;;;;;;11.75;7.43;;;18.40;87.10;;;;;;5035140;28;20021;-56
2023/06/15 06:51:45;;;;;;;14.90;7.53;;;18.40;87.40;;;;;;5018742;28;20026;-54
2023/06/15 06:54:31;;;;;;;11.43;7.65;;;18.50;87.50;;;;;;5017193;28;20088;-59
2023/06/15 06:57:17;;;;;;;11.48;7.07;;;18.60;87.30;;;;;;5027692;28;20045;-59
2023/06/15 07:00:04;;;;;;;12.63;7.50;;;18.80;86.70;;;;;;5032942;28;20498;-60
2023/06/15 07:02:50;;;;;;;9.93;7.35;;;18.80;85.80;;;;;;5029648;28;20061;-59
2023/06/15 07:05:36;;;;;;;7.68;6.70;;;19.00;84.60;;;;;;5029806;28;20043;-60
2023/06/15 07:08:22;;;;;;;11.13;7.03;;;19.00;84.10;;;;;;5029503;28;20028;-60
2023/06/15 07:11:08;;;;;;;12.13;8.02;;;18.90;84.00;;;;;;5030393;28;20017;-60
2023/06/15 07:13:54;;;;;;;11.10;6.90;;;18.70;84.70;;;;;;5027811;28;20047;-61
2023/06/15 07:16:40;;;;;;;11.93;6.97;;;18.80;84.60;;;;;;5029815;28;20117;-60
2023/06/15 07:19:26;;;;;;;10.10;7.47;;;18.90;83.80;;;;;;5029084;28;20033;-52
2023/06/15 07:22:12;;;;;;;12.60;7.28;;;18.90;84.30;;;;;;5022306;28;20030;-58
2023/06/15 07:24:58;;;;;;;12.35;6.93;;;18.90;84.70;;;;;;5024689;28;20379;-56
2023/06/15 07:27:44;;;;;;;10.10;6.47;;;18.90;84.00;;;;;;5024729;28;20021;-57
2023/06/15 07:30:30;;;;;;;9.30;6.82;;;19.00;83.60;;;;;;5023757;28;20072;-58
2023/06/15 07:33:17;;;;;;;11.13;7.03;;;19.10;83.60;;;;;;5025159;28;20032;-57
2023/06/15 07:36:03;;;;;;;9.73;6.18;;;19.20;82.70;;;;;;5025706;28;20026;-54
2023/06/15 07:38:49;;;;;;;8.50;6.30;;;19.20;83.00;;;;;;5038835;28;20065;-60
2023/06/15 07:41:35;;;;;;;13.43;7.45;;;19.20;83.00;;;;;;5027025;28;20108;-57
2023/06/15 07:44:21;;;;;;;10.07;6.80;;;19.10;83.70;;;;;;5016341;28;20117;-59
2023/06/15 07:47:08;;;;;;;12.02;7.32;;;19.20;84.00;;;;;;5023212;28;20029;-59
2023/06/15 07:49:54;;;;;;;10.57;7.18;;;19.40;83.60;;;;;;5030514;28;20070;-59
2023/06/15 07:52:42;;;;;;;11.85;6.32;;;19.50;83.10;;;;;;5041732;28;20037;-60
2023/06/15 07:55:29;;;;;;;11.40;7.05;;;19.70;82.20;;;;;;5045163;28;20049;-62
2023/06/15 07:58:15;;;;;;;9.77;7.10;;;19.90;82.40;;;;;;5039997;28;20037;-61
2023/06/15 08:01:01;;;;;;;15.65;8.65;;;19.70;80.50;;;;;;5020288;28;20098;-58
2023/06/15 08:03:47;;;;;;;11.63;6.47;;;19.80;80.40;;;;;;5048277;28;20038;-59
2023/06/15 08:06:33;;;;;;;12.43;6.97;;;19.90;81.60;;;;;;5041361;28;20171;-60
2023/06/15 08:09:19;;;;;;;9.30;7.03;;;20.00;80.30;;;;;;5039086;28;20056;-61
2023/06/15 08:12:06;;;;;;;10.48;7.65;;;20.00;80.00;;;;;;5026893;28;20021;-58
2023/06/15 08:14:52;;;;;;;9.30;7.20;;;20.10;80.30;;;;;;5023256;28;20026;-61
2023/06/15 08:17:38;;;;;;;10.52;6.85;;;20.20;79.90;;;;;;5028127;28;20057;-61
2023/06/15 08:20:24;;;;;;;9.75;6.30;;;20.20;79.20;;;;;;5033213;28;20037;-59
2023/06/15 08:23:10;;;;;;;12.30;6.95;;;20.10;80.50;;;;;;5017981;28;20056;-60
2023/06/15 08:25:57;;;;;;;13.75;7.20;;;20.10;80.30;;;;;;5037511;28;20030;-57
2023/06/15 08:28:43;;;;;;;13.18;7.40;;;20.20;80.10;;;;;;5021386;28;20065;-60
2023/06/15 08:31:30;;;;;;;9.65;6.88;;;20.30;79.60;;;;;;5037951;28;20107;-59
2023/06/15 08:34:16;;;;;;;11.40;7.10;;;20.50;79.40;;;;;;5031388;28;20049;-60
2023/06/15 08:37:02;;;;;;;10.43;7.07;;;20.50;78.20;;;;;;5040638;28;20030;-60
2023/06/15 08:39:48;;;;;;;12.32;6.57;;;20.60;78.20;;;;;;5035515;28;20034;-57
2023/06/15 08:42:34;;;;;;;9.52;6.90;;;20.50;77.90;;;;;;5045830;28;20388;-60
2023/06/15 08:45:21;;;;;;;9.93;6.70;;;20.50;78.10;;;;;;5043579;28;20037;-60
2023/06/15 08:48:09;;;;;;;12.55;7.32;;;20.60;77.10;;;;;;5042339;28;20017;-61
2023/06/15 08:50:55;;;;;;;11.20;6.95;;;20.70;77.60;;;;;;5039551;28;20103;-61
2023/06/15 08:53:45;;;;;;;11.30;7.07;;;20.90;77.60;;;;;;5046777;28;20037;-61
2023/06/15 08:56:31;;;;;;;8.45;6.65;;;21.30;77.50;;;;;;5039615;28;20029;-59
2023/06/15 08:59:17;;;;;;;10.00;6.80;;;21.30;76.30;;;;;;5031718;28;20032;-62
2023/06/15 09:02:07;;;;;;;10.73;6.38;;;21.30;74.80;;;;;;5037945;28;20022;-60
2023/06/15 09:04:53;;;;;;;9.73;6.15;;;21.20;74.90;;;;;;5037294;28;20026;-60
2023/06/15 09:07:39;;;;;;;9.90;6.38;;;21.40;74.70;;;;;;5033497;28;20053;-60
2023/06/15 09:10:26;;;;;;;9.15;6.10;;;21.50;74.10;;;;;;5036811;28;20018;-60
2023/06/15 09:13:16;;;;;;;11.27;8.27;;;21.70;74.40;;;;;;5036839;28;20534;-61
2023/06/15 09:16:03;;;;;;;12.75;8.55;;;21.50;74.90;;;;;;5032236;28;20025;-61
2023/06/15 09:18:52;;;;;;;10.88;7.28;;;21.80;74.40;;;;;;5039207;28;20041;-59
2023/06/15 09:21:42;;;;;;;8.23;5.85;;;21.90;74.10;;;;;;5039160;28;20054;-61
2023/06/15 09:24:28;;;;;;;8.30;6.13;;;22.20;72.40;;;;;;5034880;28;20014;-60
2023/06/15 09:27:15;;;;;;;10.95;5.85;;;22.50;72.40;;;;;;5051560;28;20099;-62
2023/06/15 09:30:03;;;;;;;10.57;5.97;;;22.70;71.40;;;;;;5032574;28;20009;-60
2023/06/15 09:32:50;;;;;;;8.43;6.40;;;22.80;71.00;;;;;;5039239;28;20022;-60
2023/06/15 09:35:36;;;;;;;12.00;6.35;;;23.10;70.80;;;;;;5038982;28;20017;-60
2023/06/15 09:38:22;;;;;;;8.40;5.93;;;23.20;69.40;;;;;;5038552;28;20033;-60
2023/06/15 09:41:09;;;;;;;12.75;5.60;;;23.10;68.30;;;;;;5037203;28;20022;-59
2023/06/15 09:43:55;;;;;;;7.28;5.53;;;22.60;67.50;;;;;;5042181;28;20025;-58
2023/06/15 09:46:42;;;;;;;8.35;5.45;;;22.50;68.30;;;;;;5042817;28;20040;-60
2023/06/15 09:49:28;;;;;;;8.82;5.75;;;22.70;68.50;;;;;;5040615;28;20024;-60
2023/06/15 09:52:15;;;;;;;8.18;5.88;;;22.80;67.90;;;;;;5031192;28;20017;-60
2023/06/15 09:55:03;;;;;;;5.60;5.10;;;22.90;67.50;;;;;;5037409;28;20098;-60
2023/06/15 09:57:54;;;;;;;7.43;5.90;;;23.00;67.40;;;;;;5041498;28;20029;-60
2023/06/15 10:00:41;;;;;;;7.97;5.65;;;23.10;66.30;;;;;;5042573;28;20026;-60
2023/06/15 10:03:31;;;;;;;9.32;5.47;;;22.90;66.80;;;;;;5040552;28;20048;-61
2023/06/15 10:06:18;;;;;;;7.15;5.43;;;22.80;64.90;;;;;;5040527;28;20095;-60
2023/06/15 10:09:06;;;;;;;9.15;5.45;;;22.70;65.00;;;;;;5038042;28;20030;-59
2023/06/15 10:11:57;;;;;;;8.07;5.15;;;22.70;65.10;;;;;;5027993;28;20029;-62
2023/06/15 10:15:01;;;;;;;7.25;5.20;;;23.00;65.10;;;;;;5037968;28;20746;-60
2023/06/15 10:17:50;;;;;;;7.78;5.30;;;22.90;64.30;;;;;;5028736;28;20171;-55
2023/06/15 10:20:36;;;;;;;7.28;5.60;;;23.20;64.00;;;;;;5012780;28;20564;-56
2023/06/15 10:23:27;;;;;;;8.27;4.75;;;23.20;63.70;;;;;;5022376;28;20453;-58
2023/06/15 10:26:13;;;;;;;7.95;5.20;;;23.00;64.10;;;;;;5033173;28;20021;-54
2023/06/15 10:29:06;;;;;;;7.70;5.20;;;22.70;64.90;;;;;;5029505;28;20564;-57
2023/06/15 10:32:08;;;;;;;7.03;5.45;;;22.80;64.90;;;;;;5012370;28;20490;-57
2023/06/15 10:35:19;;;;;;;8.70;5.35;;;22.90;63.80;;;;;;5012352;28;20037;-57
2023/06/15 10:38:29;;;;;;;7.88;5.30;;;23.20;63.80;;;;;;5016552;28;20024;-54
2023/06/15 10:41:15;;;;;;;6.47;5.07;;;23.20;63.10;;;;;;5015829;28;20030;-56
2023/06/15 10:44:03;;;;;;;8.45;5.28;;;23.60;62.80;;;;;;5023110;28;20030;-57
2023/06/15 10:47:08;;;;;;;8.93;5.20;;;23.50;62.30;;;;;;5022563;28;20026;-57
2023/06/15 10:49:55;;;;;;;6.32;5.07;;;23.50;62.50;;;;;;5036111;28;20037;-57
2023/06/15 10:52:41;;;;;;;8.93;5.50;;;23.80;62.20;;;;;;5036071;28;20041;-55
2023/06/15 10:55:27;;;;;;;6.55;5.25;;;23.90;60.40;;;;;;5034413;28;20033;-59
2023/06/15 10:58:17;;;;;;;7.72;5.32;;;24.10;60.90;;;;;;5034049;28;20525;-55
2023/06/15 11:01:08;;;;;;;7.78;5.13;;;24.00;61.50;;;;;;5035133;28;20519;-54
2023/06/15 11:03:55;;;;;;;8.70;5.00;;;23.80;60.60;;;;;;5030712;28;20028;-55
2023/06/15 11:06:41;;;;;;;8.80;5.05;;;23.80;60.50;;;;;;5022606;28;20567;-56
2023/06/15 11:09:35;;;;;;;9.05;5.10;;;24.10;60.40;;;;;;5026702;28;20026;-56
2023/06/15 11:12:41;;;;;;;7.40;5.38;;;24.30;60.30;;;;;;5013995;28;20590;-56
2023/06/15 11:15:33;;;;;;;6.75;5.35;;;24.50;59.40;;;;;;5027995;28;20402;-51
2023/06/15 11:18:19;;;;;;;8.45;5.55;;;24.40;59.60;;;;;;5016176;28;20042;-54
2023/06/15 11:21:05;;;;;;;12.10;5.93;;;24.40;60.50;;;;;;5017769;28;20096;-52
2023/06/15 11:23:57;;;;;;;6.00;5.40;;;24.20;60.80;;;;;;5026167;28;20069;-52
2023/06/15 11:26:44;;;;;;;5.95;5.07;;;24.40;61.20;;;;;;5027654;28;20472;-52
2023/06/15 11:29:33;;;;;;;6.05;4.97;;;24.40;60.70;;;;;;5023781;28;20025;-52
2023/06/15 11:32:25;;;;;;;7.38;5.50;;;24.60;59.70;;;;;;5023888;28;20026;-50
2023/06/15 11:35:11;;;;;;;5.57;5.00;;;24.70;58.60;;;;;;5035357;28;20116;-54
2023/06/15 11:37:58;;;;;;;7.07;5.30;;;24.70;58.60;;;;;;5035824;28;20430;-51
2023/06/15 11:40:47;;;;;;;7.70;5.35;;;24.30;58.60;;;;;;5034420;28;20510;-50
2023/06/15 11:43:52;;;;;;;7.32;6.07;;;24.20;59.60;;;;;;5034812;28;20029;-54
2023/06/15 11:46:40;;;;;;;8.38;4.93;;;24.00;59.40;;;;;;5028179;28;20065;-52
2023/06/15 11:49:35;;;;;;;13.88;5.80;;;24.00;59.50;;;;;;5014485;28;20026;-51
2023/06/15 11:52:21;;;;;;;9.10;5.10;;;23.80;58.70;;;;;;5014233;28;20116;-55
2023/06/15 11:55:10;;;;;;;7.03;4.75;;;23.70;58.80;;;;;;5029619;28;20112;-49
2023/06/15 11:57:56;;;;;;;6.78;5.68;;;23.90;58.80;;;;;;5025232;28;20450;-48
2023/06/15 12:00:42;;;;;;;7.40;4.78;;;24.00;58.70;;;;;;5035090;28;20072;-51
2023/06/15 12:03:31;;;;;;;9.35;5.00;;;24.30;57.80;;;;;;5030394;28;20036;-51
2023/06/15 12:06:20;;;;;;;8.82;5.35;;;24.60;57.80;;;;;;5030936;28;20092;-51
2023/06/15 12:09:07;;;;;;;10.65;4.93;;;24.60;57.40;;;;;;5031316;28;20072;-51
2023/06/15 12:11:53;;;;;;;8.35;5.35;;;24.70;57.30;;;;;;5020139;28;20109;-52
2023/06/15 12:14:43;;;;;;;7.85;5.30;;;24.90;56.30;;;;;;5020787;28;20366;-52
2023/06/15 12:17:31;;;;;;;6.05;4.75;;;25.10;56.80;;;;;;5029527;28;20025;-52
2023/06/15 12:20:17;;;;;;;7.90;5.25;;;24.90;54.80;;;;;;5030997;28;20038;-50
2023/06/15 12:23:04;;;;;;;8.57;5.05;;;25.20;55.20;;;;;;5014620;28;20033;-51
2023/06/15 12:25:55;;;;;;;5.88;5.05;;;25.20;55.30;;;;;;5025503;28;20029;-56
2023/06/15 12:28:41;;;;;;;6.25;4.63;;;25.40;54.80;;;;;;5033332;28;20045;-53
2023/06/15 12:31:34;;;;;;;8.77;5.07;;;25.30;54.20;;;;;;5032482;28;20029;-54
2023/06/15 12:34:24;;;;;;;6.70;4.85;;;25.40;52.80;;;;;;5013592;28;20084;-52
2023/06/15 12:37:10;;;;;;;8.45;4.82;;;25.20;53.10;;;;;;5033222;28;20604;-52
2023/06/15 12:39:56;;;;;;;8.85;4.85;;;25.10;54.10;;;;;;5034488;28;20025;-53
2023/06/15 12:42:42;;;;;;;9.40;4.80;;;25.30;54.30;;;;;;5031352;28;20033;-50
2023/06/15 12:45:28;;;;;;;8.95;5.88;;;25.60;54.20;;;;;;5033168;28;20033;-52
2023/06/15 12:48:14;;;;;;;8.25;4.80;;;25.60;53.00;;;;;;5020765;28;20045;-48
2023/06/15 12:51:01;;;;;;;6.95;4.70;;;25.90;53.10;;;;;;5013611;28;20466;-57
2023/06/15 12:53:47;;;;;;;9.75;5.55;;;25.60;52.30;;;;;;5029875;28;20069;-56
2023/06/15 12:56:34;;;;;;;7.68;5.35;;;25.50;52.40;;;;;;5012337;28;20129;-56
2023/06/15 12:59:20;;;;;;;8.95;4.93;;;25.50;53.20;;;;;;5013077;28;20030;-55
2023/06/15 13:02:07;;;;;;;6.78;4.78;;;25.70;52.80;;;;;;5013357;28;20049;-57
2023/06/15 13:04:56;;;;;;;8.38;4.90;;;25.80;52.00;;;;;;5014909;28;20044;-56
2023/06/15 13:07:42;;;;;;;9.02;4.90;;;25.50;52.00;;;;;;5013282;28;20064;-57
2023/06/15 13:10:30;;;;;;;5.90;4.85;;;25.70;51.80;;;;;;5013278;28;20053;-59
2023/06/15 13:13:16;;;;;;;10.75;5.53;;;25.70;52.20;;;;;;5011867;28;20088;-55
2023/06/15 13:16:02;;;;;;;9.07;5.55;;;26.00;51.40;;;;;;5022508;28;20113;-57
2023/06/15 13:18:48;;;;;;;8.65;5.40;;;26.20;51.40;;;;;;5032171;28;20060;-56
2023/06/15 13:21:34;;;;;;;8.15;5.13;;;26.50;51.30;;;;;;5025553;28;20030;-57
2023/06/15 13:24:20;;;;;;;6.88;5.20;;;26.50;50.40;;;;;;5012692;28;20026;-59
2023/06/15 13:27:08;;;;;;;6.60;5.22;;;26.10;51.10;;;;;;5017176;28;20438;-59
2023/06/15 13:29:54;;;;;;;8.73;5.90;;;26.00;51.40;;;;;;5016607;28;20087;-56
2023/06/15 13:32:42;;;;;;;7.07;4.97;;;26.40;52.00;;;;;;5026542;28;20494;-54
2023/06/15 13:35:28;;;;;;;7.63;5.00;;;26.20;52.00;;;;;;5019885;28;20029;-51
2023/06/15 13:38:14;;;;;;;6.78;5.35;;;25.90;52.70;;;;;;5019164;28;20466;-51
2023/06/15 13:41:00;;;;;;;7.95;5.28;;;25.80;52.10;;;;;;5023849;28;20573;-51
2023/06/15 13:43:47;;;;;;;7.25;5.20;;;26.10;52.00;;;;;;5018505;28;20061;-56
2023/06/15 13:46:35;;;;;;;7.75;5.15;;;26.50;51.70;;;;;;5032068;28;20032;-54
2023/06/15 13:49:21;;;;;;;5.82;5.22;;;26.70;51.60;;;;;;5031082;28;20033;-51
2023/06/15 13:52:07;;;;;;;6.85;5.40;;;26.90;51.80;;;;;;5020703;28;20053;-52
2023/06/15 13:54:54;;;;;;;6.53;5.35;;;26.90;51.30;;;;;;5031107;28;20029;-53
2023/06/15 13:57:40;;;;;;;9.13;6.18;;;26.80;52.00;;;;;;5024631;28;20061;-54
2023/06/15 14:00:27;;;;;;;9.18;6.18;;;26.50;52.90;;;;;;5023419;28;20100;-51
2023/06/15 14:03:13;;;;;;;8.00;5.82;;;26.10;52.00;;;;;;5018074;28;20069;-54
2023/06/15 14:05:59;;;;;;;8.88;6.00;;;25.70;51.60;;;;;;5024193;28;20022;-53
2023/06/15 14:08:45;;;;;;;8.13;5.70;;;25.40;52.40;;;;;;5024818;28;20049;-53
2023/06/15 14:11:31;;;;;;;9.25;6.07;;;25.40;53.10;;;;;;5032542;28;20104;-52
2023/06/15 14:14:17;;;;;;;9.25;6.10;;;25.90;52.60;;;;;;5032259;28;20033;-55
2023/06/15 14:17:04;;;;;;;7.30;5.45;;;26.60;52.80;;;;;;5028790;28;20034;-55
2023/06/15 14:19:50;;;;;;;7.18;5.40;;;27.10;51.90;;;;;;5035137;28;20664;-55
2023/06/15 14:22:36;;;;;;;7.25;5.50;;;27.50;52.30;;;;;;5022509;28;20048;-53
2023/06/15 14:25:24;;;;;;;10.82;6.32;;;27.30;52.00;;;;;;5017834;28;20033;-55